Mount Tabor, North Carolina
Current Conditions -  °F | °C
As of 10:54 AM on Thursday 30 Oct 2014 (Local Time) from KINT Reporting Station
Clear Clear  
Wind Chill: 58°   Ceiling: Unl
Heat Index: 58°   Visibility: 10mi
Dew Point: 34°   Wind: 8mph
Humidity: 41%   Direction: 50°NE
Pressure: 30.09"   Gusts: NA
Location:  36.1422°N, 80.3221°W
Report Text: KINT 301454Z 05007KT 10SM CLR 14/01 A3009 RMK AO2 SLP185 T01440011 50006
Loading
Personal Weather Stations






























Interactive Weather Map
Tropical Storm Tracking
New forecast layout! Learn more

10-Day Weather Forecast

Advertisements
Track Severe Weather on mobile